sensor_id;sensor_type;location;lat;lon;timestamp;temperature;humidity
9103;DHT22;4587;51.434;6.788;2022-11-20T00:01:40;0.10;99.90
9103;DHT22;4587;51.434;6.788;2022-11-20T00:04:05;0.10;99.90
9103;DHT22;4587;51.434;6.788;2022-11-20T00:06:31;0.20;99.90
9103;DHT22;4587;51.434;6.788;2022-11-20T00:08:59;0.20;99.90
9103;DHT22;4587;51.434;6.788;2022-11-20T00:11:27;0.20;99.90
9103;DHT22;4587;51.434;6.788;2022-11-20T00:13:55;0.20;99.90
9103;DHT22;4587;51.434;6.788;2022-11-20T00:16:24;0.10;99.90
9103;DHT22;4587;51.434;6.788;2022-11-20T00:18:51;0.10;99.90
9103;DHT22;4587;51.434;6.788;2022-11-20T00:21:21;0.10;99.90
9103;DHT22;4587;51.434;6.788;2022-11-20T00:23:49;0.00;99.90
9103;DHT22;4587;51.434;6.788;2022-11-20T00:26:16;0.00;99.90
9103;DHT22;4587;51.434;6.788;2022-11-20T00:28:43;0.00;99.90
9103;DHT22;4587;51.434;6.788;2022-11-20T00:31:14;0.00;99.90
9103;DHT22;4587;51.434;6.788;2022-11-20T00:33:41;0.00;99.90
9103;DHT22;4587;51.434;6.788;2022-11-20T00:36:12;0.00;99.90
9103;DHT22;4587;51.434;6.788;2022-11-20T00:38:38;0.00;99.90
9103;DHT22;4587;51.434;6.788;2022-11-20T00:41:10;0.00;99.90
9103;DHT22;4587;51.434;6.788;2022-11-20T00:43:37;-0.10;99.90
9103;DHT22;4587;51.434;6.788;2022-11-20T00:46:10;-0.10;99.90
9103;DHT22;4587;51.434;6.788;2022-11-20T00:48:37;-0.10;99.90
9103;DHT22;4587;51.434;6.788;2022-11-20T00:51:03;-0.10;99.90
9103;DHT22;4587;51.434;6.788;2022-11-20T00:53:29;-0.10;99.90
9103;DHT22;4587;51.434;6.788;2022-11-20T00:55:56;-0.10;99.90
9103;DHT22;4587;51.434;6.788;2022-11-20T00:58:24;-0.20;99.90
9103;DHT22;4587;51.434;6.788;2022-11-20T01:00:50;-0.10;99.90
9103;DHT22;4587;51.434;6.788;2022-11-20T01:03:18;-0.10;99.90
9103;DHT22;4587;51.434;6.788;2022-11-20T01:05:44;-0.10;99.90
9103;DHT22;4587;51.434;6.788;2022-11-20T01:08:10;-0.10;99.90
9103;DHT22;4587;51.434;6.788;2022-11-20T01:10:36;-0.10;99.90
9103;DHT22;4587;51.434;6.788;2022-11-20T01:13:01;-0.20;99.90
9103;DHT22;4587;51.434;6.788;2022-11-20T01:15:45;-0.20;99.90
9103;DHT22;4587;51.434;6.788;2022-11-20T01:18:11;-0.20;99.90
9103;DHT22;4587;51.434;6.788;2022-11-20T01:20:37;-0.20;99.90
9103;DHT22;4587;51.434;6.788;2022-11-20T01:23:03;-0.20;99.90
9103;DHT22;4587;51.434;6.788;2022-11-20T01:25:29;-0.20;99.90
9103;DHT22;4587;51.434;6.788;2022-11-20T01:27:55;-0.20;99.90
9103;DHT22;4587;51.434;6.788;2022-11-20T01:30:20;-0.30;99.90
9103;DHT22;4587;51.434;6.788;2022-11-20T01:32:46;-0.30;99.90
9103;DHT22;4587;51.434;6.788;2022-11-20T01:35:11;-0.30;99.90
9103;DHT22;4587;51.434;6.788;2022-11-20T01:37:37;-0.20;99.90
9103;DHT22;4587;51.434;6.788;2022-11-20T01:40:03;-0.20;99.90
9103;DHT22;4587;51.434;6.788;2022-11-20T01:42:28;-0.10;99.90
9103;DHT22;4587;51.434;6.788;2022-11-20T01:48:17;0.00;99.90
9103;DHT22;4587;51.434;6.788;2022-11-20T01:50:44;0.20;99.90
9103;DHT22;4587;51.434;6.788;2022-11-20T01:53:14;0.20;99.90
9103;DHT22;4587;51.434;6.788;2022-11-20T01:55:49;0.30;99.90
9103;DHT22;4587;51.434;6.788;2022-11-20T01:58:16;0.30;99.90
9103;DHT22;4587;51.434;6.788;2022-11-20T02:00:44;0.40;99.90
9103;DHT22;4587;51.434;6.788;2022-11-20T02:03:12;0.50;99.90
9103;DHT22;4587;51.434;6.788;2022-11-20T02:05:55;0.50;99.90
9103;DHT22;4587;51.434;6.788;2022-11-20T02:08:23;0.50;99.90
9103;DHT22;4587;51.434;6.788;2022-11-20T02:10:48;0.50;99.90
9103;DHT22;4587;51.434;6.788;2022-11-20T02:13:14;0.60;99.90
9103;DHT22;4587;51.434;6.788;2022-11-20T02:16:00;0.60;99.90
9103;DHT22;4587;51.434;6.788;2022-11-20T02:18:26;0.60;99.90
9103;DHT22;4587;51.434;6.788;2022-11-20T02:26:30;0.60;99.90
9103;DHT22;4587;51.434;6.788;2022-11-20T02:28:58;0.60;99.90
9103;DHT22;4587;51.434;6.788;2022-11-20T02:31:23;0.70;99.90
9103;DHT22;4587;51.434;6.788;2022-11-20T02:33:57;0.60;99.90
9103;DHT22;4587;51.434;6.788;2022-11-20T02:36:24;0.60;99.90
9103;DHT22;4587;51.434;6.788;2022-11-20T02:38:51;0.60;99.90
9103;DHT22;4587;51.434;6.788;2022-11-20T02:41:17;0.70;99.90
9103;DHT22;4587;51.434;6.788;2022-11-20T02:43:42;0.60;99.90
9103;DHT22;4587;51.434;6.788;2022-11-20T02:46:08;0.70;99.90
9103;DHT22;4587;51.434;6.788;2022-11-20T02:48:33;0.70;99.90
9103;DHT22;4587;51.434;6.788;2022-11-20T02:50:59;0.80;99.90
9103;DHT22;4587;51.434;6.788;2022-11-20T02:53:25;0.80;99.90
9103;DHT22;4587;51.434;6.788;2022-11-20T02:55:51;0.90;99.90
9103;DHT22;4587;51.434;6.788;2022-11-20T02:58:16;0.90;99.90
9103;DHT22;4587;51.434;6.788;2022-11-20T03:00:42;0.90;99.90
9103;DHT22;4587;51.434;6.788;2022-11-20T03:03:07;1.00;99.90
9103;DHT22;4587;51.434;6.788;2022-11-20T03:05:33;1.00;99.90
9103;DHT22;4587;51.434;6.788;2022-11-20T03:07:58;1.10;99.90
9103;DHT22;4587;51.434;6.788;2022-11-20T03:10:24;1.10;99.90
9103;DHT22;4587;51.434;6.788;2022-11-20T03:12:54;1.10;99.90
9103;DHT22;4587;51.434;6.788;2022-11-20T03:15:21;1.10;99.90
9103;DHT22;4587;51.434;6.788;2022-11-20T03:17:46;1.20;99.90
9103;DHT22;4587;51.434;6.788;2022-11-20T03:20:12;1.30;99.90
9103;DHT22;4587;51.434;6.788;2022-11-20T03:22:37;1.20;99.90
9103;DHT22;4587;51.434;6.788;2022-11-20T03:25:03;1.30;99.90
9103;DHT22;4587;51.434;6.788;2022-11-20T03:27:33;1.30;99.90
9103;DHT22;4587;51.434;6.788;2022-11-20T03:29:59;1.30;99.90
9103;DHT22;4587;51.434;6.788;2022-11-20T03:32:24;1.30;99.90
9103;DHT22;4587;51.434;6.788;2022-11-20T03:34:50;1.40;99.90
9103;DHT22;4587;51.434;6.788;2022-11-20T03:37:15;1.30;99.90
9103;DHT22;4587;51.434;6.788;2022-11-20T03:39:41;1.30;99.90
9103;DHT22;4587;51.434;6.788;2022-11-20T03:42:06;1.30;99.90
9103;DHT22;4587;51.434;6.788;2022-11-20T03:44:52;1.30;99.90
9103;DHT22;4587;51.434;6.788;2022-11-20T03:47:17;1.30;99.90
9103;DHT22;4587;51.434;6.788;2022-11-20T03:49:43;1.30;99.90
9103;DHT22;4587;51.434;6.788;2022-11-20T03:52:08;1.30;99.90
9103;DHT22;4587;51.434;6.788;2022-11-20T03:54:34;1.40;99.90
9103;DHT22;4587;51.434;6.788;2022-11-20T03:56:59;1.40;99.90
9103;DHT22;4587;51.434;6.788;2022-11-20T03:59:25;1.40;99.90
9103;DHT22;4587;51.434;6.788;2022-11-20T04:01:50;1.50;99.90
9103;DHT22;4587;51.434;6.788;2022-11-20T04:04:16;1.40;99.90
9103;DHT22;4587;51.434;6.788;2022-11-20T04:06:41;1.40;99.90
9103;DHT22;4587;51.434;6.788;2022-11-20T04:09:07;1.40;99.90
9103;DHT22;4587;51.434;6.788;2022-11-20T04:11:34;1.40;99.90
9103;DHT22;4587;51.434;6.788;2022-11-20T04:14:03;1.50;99.90
9103;DHT22;4587;51.434;6.788;2022-11-20T04:16:30;1.50;99.90
9103;DHT22;4587;51.434;6.788;2022-11-20T04:18:58;1.50;99.90
9103;DHT22;4587;51.434;6.788;2022-11-20T04:21:24;1.50;99.90
9103;DHT22;4587;51.434;6.788;2022-11-20T04:23:51;1.50;99.90
9103;DHT22;4587;51.434;6.788;2022-11-20T04:26:18;1.50;99.90
9103;DHT22;4587;51.434;6.788;2022-11-20T04:28:43;1.50;99.90
9103;DHT22;4587;51.434;6.788;2022-11-20T04:31:14;1.50;99.90
9103;DHT22;4587;51.434;6.788;2022-11-20T04:33:40;1.50;99.90
9103;DHT22;4587;51.434;6.788;2022-11-20T04:36:11;1.50;99.90
9103;DHT22;4587;51.434;6.788;2022-11-20T04:38:38;1.50;99.90
9103;DHT22;4587;51.434;6.788;2022-11-20T04:41:06;1.70;99.90
9103;DHT22;4587;51.434;6.788;2022-11-20T04:43:32;1.70;99.90
9103;DHT22;4587;51.434;6.788;2022-11-20T04:45:59;1.80;99.90
9103;DHT22;4587;51.434;6.788;2022-11-20T04:48:27;1.80;99.90
9103;DHT22;4587;51.434;6.788;2022-11-20T04:50:53;1.80;99.90
9103;DHT22;4587;51.434;6.788;2022-11-20T04:53:19;1.80;99.90
9103;DHT22;4587;51.434;6.788;2022-11-20T04:55:45;1.80;99.90
9103;DHT22;4587;51.434;6.788;2022-11-20T04:58:12;1.70;99.90
9103;DHT22;4587;51.434;6.788;2022-11-20T05:00:37;1.80;99.90
9103;DHT22;4587;51.434;6.788;2022-11-20T05:03:03;1.80;99.90
9103;DHT22;4587;51.434;6.788;2022-11-20T05:05:29;1.90;99.90
9103;DHT22;4587;51.434;6.788;2022-11-20T05:07:58;1.90;99.90
9103;DHT22;4587;51.434;6.788;2022-11-20T05:10:24;2.00;99.90
9103;DHT22;4587;51.434;6.788;2022-11-20T05:12:50;2.00;99.90
9103;DHT22;4587;51.434;6.788;2022-11-20T05:15:16;2.00;99.90
9103;DHT22;4587;51.434;6.788;2022-11-20T05:17:52;1.90;99.90
9103;DHT22;4587;51.434;6.788;2022-11-20T05:20:18;2.00;99.90
9103;DHT22;4587;51.434;6.788;2022-11-20T05:22:44;2.00;99.90
9103;DHT22;4587;51.434;6.788;2022-11-20T05:25:10;2.00;99.90
9103;DHT22;4587;51.434;6.788;2022-11-20T05:27:36;2.00;99.90
9103;DHT22;4587;51.434;6.788;2022-11-20T05:30:03;2.10;99.90
9103;DHT22;4587;51.434;6.788;2022-11-20T05:32:29;2.10;99.90
9103;DHT22;4587;51.434;6.788;2022-11-20T05:34:55;2.10;99.90
9103;DHT22;4587;51.434;6.788;2022-11-20T05:37:20;2.20;99.90
9103;DHT22;4587;51.434;6.788;2022-11-20T05:39:46;2.20;99.90
9103;DHT22;4587;51.434;6.788;2022-11-20T05:42:11;2.20;99.90
9103;DHT22;4587;51.434;6.788;2022-11-20T05:44:56;2.30;99.90
9103;DHT22;4587;51.434;6.788;2022-11-20T05:47:22;2.30;99.90
9103;DHT22;4587;51.434;6.788;2022-11-20T05:49:47;2.30;99.90
9103;DHT22;4587;51.434;6.788;2022-11-20T05:52:13;2.40;99.90
9103;DHT22;4587;51.434;6.788;2022-11-20T05:54:38;2.40;99.90
9103;DHT22;4587;51.434;6.788;2022-11-20T05:57:04;2.40;99.90
9103;DHT22;4587;51.434;6.788;2022-11-20T05:59:29;2.30;99.90
9103;DHT22;4587;51.434;6.788;2022-11-20T06:01:55;2.40;99.90
9103;DHT22;4587;51.434;6.788;2022-11-20T06:04:20;2.40;99.90
9103;DHT22;4587;51.434;6.788;2022-11-20T06:06:46;2.40;99.90
9103;DHT22;4587;51.434;6.788;2022-11-20T06:09:11;2.40;99.90
9103;DHT22;4587;51.434;6.788;2022-11-20T06:11:37;2.40;99.90
9103;DHT22;4587;51.434;6.788;2022-11-20T06:14:02;2.30;99.90
9103;DHT22;4587;51.434;6.788;2022-11-20T06:16:28;2.40;99.90
9103;DHT22;4587;51.434;6.788;2022-11-20T06:18:54;2.30;99.90
9103;DHT22;4587;51.434;6.788;2022-11-20T06:21:21;2.30;99.90
9103;DHT22;4587;51.434;6.788;2022-11-20T06:23:47;2.30;99.90
9103;DHT22;4587;51.434;6.788;2022-11-20T06:26:16;2.20;99.90
9103;DHT22;4587;51.434;6.788;2022-11-20T06:28:42;2.20;99.90
9103;DHT22;4587;51.434;6.788;2022-11-20T06:31:11;2.20;99.90
9103;DHT22;4587;51.434;6.788;2022-11-20T06:33:36;2.20;99.90
9103;DHT22;4587;51.434;6.788;2022-11-20T06:36:03;2.20;99.90
9103;DHT22;4587;51.434;6.788;2022-11-20T06:38:28;2.30;99.90
9103;DHT22;4587;51.434;6.788;2022-11-20T06:40:54;2.30;99.90
9103;DHT22;4587;51.434;6.788;2022-11-20T06:43:20;2.30;99.90
9103;DHT22;4587;51.434;6.788;2022-11-20T06:45:46;2.30;99.90
9103;DHT22;4587;51.434;6.788;2022-11-20T06:48:11;2.30;99.90
9103;DHT22;4587;51.434;6.788;2022-11-20T06:50:37;2.30;99.90
9103;DHT22;4587;51.434;6.788;2022-11-20T06:53:04;2.30;99.90
9103;DHT22;4587;51.434;6.788;2022-11-20T06:55:30;2.30;99.90
9103;DHT22;4587;51.434;6.788;2022-11-20T06:57:57;2.30;99.90
9103;DHT22;4587;51.434;6.788;2022-11-20T07:00:22;2.30;99.90
9103;DHT22;4587;51.434;6.788;2022-11-20T07:02:48;2.40;99.90
9103;DHT22;4587;51.434;6.788;2022-11-20T07:05:14;2.40;99.90
9103;DHT22;4587;51.434;6.788;2022-11-20T07:07:39;2.50;99.90
9103;DHT22;4587;51.434;6.788;2022-11-20T07:10:05;2.50;99.90
9103;DHT22;4587;51.434;6.788;2022-11-20T07:12:31;2.50;99.90
9103;DHT22;4587;51.434;6.788;2022-11-20T07:14:56;2.40;99.90
9103;DHT22;4587;51.434;6.788;2022-11-20T07:17:22;2.50;99.90
9103;DHT22;4587;51.434;6.788;2022-11-20T07:19:47;2.50;99.90
9103;DHT22;4587;51.434;6.788;2022-11-20T07:22:13;2.60;99.90
9103;DHT22;4587;51.434;6.788;2022-11-20T07:24:38;2.60;99.90
9103;DHT22;4587;51.434;6.788;2022-11-20T07:27:06;2.60;99.90
9103;DHT22;4587;51.434;6.788;2022-11-20T07:29:32;2.60;99.90
9103;DHT22;4587;51.434;6.788;2022-11-20T07:31:59;2.70;99.90
9103;DHT22;4587;51.434;6.788;2022-11-20T07:34:24;2.70;99.90
9103;DHT22;4587;51.434;6.788;2022-11-20T07:36:50;2.70;99.90
9103;DHT22;4587;51.434;6.788;2022-11-20T07:39:15;2.80;99.90
9103;DHT22;4587;51.434;6.788;2022-11-20T07:41:41;2.80;99.90
9103;DHT22;4587;51.434;6.788;2022-11-20T07:44:06;2.70;99.90
9103;DHT22;4587;51.434;6.788;2022-11-20T07:46:32;2.70;99.90
9103;DHT22;4587;51.434;6.788;2022-11-20T07:48:57;2.80;99.90
9103;DHT22;4587;51.434;6.788;2022-11-20T07:51:23;2.80;99.90
9103;DHT22;4587;51.434;6.788;2022-11-20T07:53:52;2.90;99.90
9103;DHT22;4587;51.434;6.788;2022-11-20T07:56:18;2.90;99.90
9103;DHT22;4587;51.434;6.788;2022-11-20T07:58:43;2.90;99.90
9103;DHT22;4587;51.434;6.788;2022-11-20T08:01:09;2.90;99.90
9103;DHT22;4587;51.434;6.788;2022-11-20T08:03:35;2.90;99.90
9103;DHT22;4587;51.434;6.788;2022-11-20T08:06:03;3.00;99.90
9103;DHT22;4587;51.434;6.788;2022-11-20T08:08:29;3.10;99.90
9103;DHT22;4587;51.434;6.788;2022-11-20T08:10:56;3.10;99.90
9103;DHT22;4587;51.434;6.788;2022-11-20T08:13:42;3.10;99.90
9103;DHT22;4587;51.434;6.788;2022-11-20T08:16:37;3.10;99.90
9103;DHT22;4587;51.434;6.788;2022-11-20T08:19:03;3.20;99.90
9103;DHT22;4587;51.434;6.788;2022-11-20T08:21:30;3.20;99.90
9103;DHT22;4587;51.434;6.788;2022-11-20T08:23:57;3.20;99.90
9103;DHT22;4587;51.434;6.788;2022-11-20T08:26:22;3.30;99.90
9103;DHT22;4587;51.434;6.788;2022-11-20T08:28:48;3.40;99.90
9103;DHT22;4587;51.434;6.788;2022-11-20T08:31:14;3.40;99.90
9103;DHT22;4587;51.434;6.788;2022-11-20T08:33:40;3.50;99.90
9103;DHT22;4587;51.434;6.788;2022-11-20T08:36:06;3.60;99.90
9103;DHT22;4587;51.434;6.788;2022-11-20T08:38:32;3.70;99.90
9103;DHT22;4587;51.434;6.788;2022-11-20T08:40:59;3.90;99.90
9103;DHT22;4587;51.434;6.788;2022-11-20T08:43:43;3.90;99.90
9103;DHT22;4587;51.434;6.788;2022-11-20T08:46:08;4.00;99.90
9103;DHT22;4587;51.434;6.788;2022-11-20T08:48:34;4.10;99.90
9103;DHT22;4587;51.434;6.788;2022-11-20T08:50:59;4.20;99.90
9103;DHT22;4587;51.434;6.788;2022-11-20T08:53:26;4.10;99.90
9103;DHT22;4587;51.434;6.788;2022-11-20T08:55:52;4.20;99.90
9103;DHT22;4587;51.434;6.788;2022-11-20T08:58:17;4.20;99.90
9103;DHT22;4587;51.434;6.788;2022-11-20T09:00:43;4.40;99.90
9103;DHT22;4587;51.434;6.788;2022-11-20T09:03:08;4.50;99.90
9103;DHT22;4587;51.434;6.788;2022-11-20T09:05:34;4.60;99.90
9103;DHT22;4587;51.434;6.788;2022-11-20T09:07:59;4.70;99.90
9103;DHT22;4587;51.434;6.788;2022-11-20T09:10:26;4.80;99.90
9103;DHT22;4587;51.434;6.788;2022-11-20T09:12:52;4.80;99.90
9103;DHT22;4587;51.434;6.788;2022-11-20T09:15:18;4.90;99.90
9103;DHT22;4587;51.434;6.788;2022-11-20T09:17:54;5.00;99.90
9103;DHT22;4587;51.434;6.788;2022-11-20T09:20:20;5.40;99.90
9103;DHT22;4587;51.434;6.788;2022-11-20T09:22:46;5.40;99.90
9103;DHT22;4587;51.434;6.788;2022-11-20T09:25:11;5.30;99.90
9103;DHT22;4587;51.434;6.788;2022-11-20T09:27:37;5.30;99.90
9103;DHT22;4587;51.434;6.788;2022-11-20T09:30:03;5.20;99.90
9103;DHT22;4587;51.434;6.788;2022-11-20T09:32:29;5.20;99.90
9103;DHT22;4587;51.434;6.788;2022-11-20T09:34:54;5.10;99.90
9103;DHT22;4587;51.434;6.788;2022-11-20T09:37:20;5.00;99.90
9103;DHT22;4587;51.434;6.788;2022-11-20T09:39:45;5.10;99.90
9103;DHT22;4587;51.434;6.788;2022-11-20T09:43:00;5.10;99.90
9103;DHT22;4587;51.434;6.788;2022-11-20T09:50:50;4.80;99.90
9103;DHT22;4587;51.434;6.788;2022-11-20T09:56:20;4.70;99.90
9103;DHT22;4587;51.434;6.788;2022-11-20T09:58:51;4.60;99.90
9103;DHT22;4587;51.434;6.788;2022-11-20T10:01:20;4.50;99.90
9103;DHT22;4587;51.434;6.788;2022-11-20T10:04:11;4.40;99.90
9103;DHT22;4587;51.434;6.788;2022-11-20T10:07:02;4.40;99.90
9103;DHT22;4587;51.434;6.788;2022-11-20T10:09:34;4.50;99.90
9103;DHT22;4587;51.434;6.788;2022-11-20T10:14:42;4.50;99.90
9103;DHT22;4587;51.434;6.788;2022-11-20T10:26:16;4.90;99.90
9103;DHT22;4587;51.434;6.788;2022-11-20T10:28:58;5.00;99.90
9103;DHT22;4587;51.434;6.788;2022-11-20T10:31:33;5.10;99.90
9103;DHT22;4587;51.434;6.788;2022-11-20T10:34:03;5.10;99.90
9103;DHT22;4587;51.434;6.788;2022-11-20T10:36:38;5.20;99.90
9103;DHT22;4587;51.434;6.788;2022-11-20T10:39:06;5.40;99.90
9103;DHT22;4587;51.434;6.788;2022-11-20T10:41:40;5.40;99.90
9103;DHT22;4587;51.434;6.788;2022-11-20T10:44:24;5.40;99.90
9103;DHT22;4587;51.434;6.788;2022-11-20T10:47:15;5.50;99.90
9103;DHT22;4587;51.434;6.788;2022-11-20T10:49:42;5.50;99.90
9103;DHT22;4587;51.434;6.788;2022-11-20T11:00:33;5.60;99.90
9103;DHT22;4587;51.434;6.788;2022-11-20T11:02:59;5.70;99.90
9103;DHT22;4587;51.434;6.788;2022-11-20T11:08:00;5.70;99.90
9103;DHT22;4587;51.434;6.788;2022-11-20T11:13:20;5.70;99.90
9103;DHT22;4587;51.434;6.788;2022-11-20T11:15:46;5.70;99.90
9103;DHT22;4587;51.434;6.788;2022-11-20T11:18:26;5.70;99.90
9103;DHT22;4587;51.434;6.788;2022-11-20T11:20:54;5.70;99.90
9103;DHT22;4587;51.434;6.788;2022-11-20T11:23:30;5.60;99.90
9103;DHT22;4587;51.434;6.788;2022-11-20T11:25:58;5.60;99.90
9103;DHT22;4587;51.434;6.788;2022-11-20T11:28:25;5.60;99.90
9103;DHT22;4587;51.434;6.788;2022-11-20T11:30:52;5.70;99.90
9103;DHT22;4587;51.434;6.788;2022-11-20T11:33:27;5.70;99.90
9103;DHT22;4587;51.434;6.788;2022-11-20T11:36:03;5.80;99.90
9103;DHT22;4587;51.434;6.788;2022-11-20T11:38:41;5.70;99.90
9103;DHT22;4587;51.434;6.788;2022-11-20T11:41:15;5.80;99.90
9103;DHT22;4587;51.434;6.788;2022-11-20T11:43:51;5.70;99.90
9103;DHT22;4587;51.434;6.788;2022-11-20T11:46:36;5.70;99.90
9103;DHT22;4587;51.434;6.788;2022-11-20T11:54:43;5.60;99.90
9103;DHT22;4587;51.434;6.788;2022-11-20T12:05:40;5.50;99.90
9103;DHT22;4587;51.434;6.788;2022-11-20T12:11:29;5.60;99.90
9103;DHT22;4587;51.434;6.788;2022-11-20T12:16:27;5.60;99.90
9103;DHT22;4587;51.434;6.788;2022-11-20T12:18:53;5.70;99.90
9103;DHT22;4587;51.434;6.788;2022-11-20T12:21:31;5.70;99.90
9103;DHT22;4587;51.434;6.788;2022-11-20T12:34:58;5.80;99.90
9103;DHT22;4587;51.434;6.788;2022-11-20T12:37:48;5.90;99.90
9103;DHT22;4587;51.434;6.788;2022-11-20T12:51:48;5.90;99.90
9103;DHT22;4587;51.434;6.788;2022-11-20T12:54:36;6.00;99.90
9103;DHT22;4587;51.434;6.788;2022-11-20T12:57:09;6.00;99.90
9103;DHT22;4587;51.434;6.788;2022-11-20T13:05:17;6.00;99.90
9103;DHT22;4587;51.434;6.788;2022-11-20T13:07:45;6.10;99.90
9103;DHT22;4587;51.434;6.788;2022-11-20T13:10:19;6.10;99.90
9103;DHT22;4587;51.434;6.788;2022-11-20T13:13:17;6.00;99.90
9103;DHT22;4587;51.434;6.788;2022-11-20T13:16:17;6.00;99.90
9103;DHT22;4587;51.434;6.788;2022-11-20T13:18:44;6.00;99.90
9103;DHT22;4587;51.434;6.788;2022-11-20T13:21:19;6.10;99.90
9103;DHT22;4587;51.434;6.788;2022-11-20T13:23:45;6.10;99.90
9103;DHT22;4587;51.434;6.788;2022-11-20T13:26:20;6.00;99.90
9103;DHT22;4587;51.434;6.788;2022-11-20T13:28:48;6.00;99.90
9103;DHT22;4587;51.434;6.788;2022-11-20T13:31:34;5.90;99.90
9103;DHT22;4587;51.434;6.788;2022-11-20T13:34:04;6.00;99.90
9103;DHT22;4587;51.434;6.788;2022-11-20T13:36:31;5.90;99.90
9103;DHT22;4587;51.434;6.788;2022-11-20T13:38:58;6.00;99.90
9103;DHT22;4587;51.434;6.788;2022-11-20T13:41:25;6.00;99.90
9103;DHT22;4587;51.434;6.788;2022-11-20T13:43:58;6.10;99.90
9103;DHT22;4587;51.434;6.788;2022-11-20T13:46:45;6.00;99.90
9103;DHT22;4587;51.434;6.788;2022-11-20T13:49:38;5.90;99.90
9103;DHT22;4587;51.434;6.788;2022-11-20T13:58:02;5.80;99.90
9103;DHT22;4587;51.434;6.788;2022-11-20T14:00:30;5.90;99.90
9103;DHT22;4587;51.434;6.788;2022-11-20T14:05:55;5.70;99.90
9103;DHT22;4587;51.434;6.788;2022-11-20T14:09:02;5.70;99.90
9103;DHT22;4587;51.434;6.788;2022-11-20T14:11:29;5.70;99.90
9103;DHT22;4587;51.434;6.788;2022-11-20T14:14:19;5.70;99.90
9103;DHT22;4587;51.434;6.788;2022-11-20T14:16:45;5.60;99.90
9103;DHT22;4587;51.434;6.788;2022-11-20T14:24:14;5.50;99.90
9103;DHT22;4587;51.434;6.788;2022-11-20T14:26:44;5.60;99.90
9103;DHT22;4587;51.434;6.788;2022-11-20T14:29:19;5.70;99.90
9103;DHT22;4587;51.434;6.788;2022-11-20T14:31:46;5.70;99.90
9103;DHT22;4587;51.434;6.788;2022-11-20T14:34:18;5.70;99.90
9103;DHT22;4587;51.434;6.788;2022-11-20T14:36:44;5.70;99.90
9103;DHT22;4587;51.434;6.788;2022-11-20T14:39:37;5.60;99.90
9103;DHT22;4587;51.434;6.788;2022-11-20T14:42:10;5.50;99.90
9103;DHT22;4587;51.434;6.788;2022-11-20T14:44:40;5.50;99.90
9103;DHT22;4587;51.434;6.788;2022-11-20T14:47:08;5.50;99.90
9103;DHT22;4587;51.434;6.788;2022-11-20T14:49:37;5.50;99.90
9103;DHT22;4587;51.434;6.788;2022-11-20T14:52:18;5.60;99.90
9103;DHT22;4587;51.434;6.788;2022-11-20T14:54:45;5.50;99.90
9103;DHT22;4587;51.434;6.788;2022-11-20T14:57:28;5.60;99.90
9103;DHT22;4587;51.434;6.788;2022-11-20T15:02:48;5.60;99.90
9103;DHT22;4587;51.434;6.788;2022-11-20T15:05:16;5.60;99.90
9103;DHT22;4587;51.434;6.788;2022-11-20T15:07:44;5.50;99.90
9103;DHT22;4587;51.434;6.788;2022-11-20T15:10:23;5.40;99.90
9103;DHT22;4587;51.434;6.788;2022-11-20T15:12:51;5.50;99.90
9103;DHT22;4587;51.434;6.788;2022-11-20T15:15:23;5.50;99.90
9103;DHT22;4587;51.434;6.788;2022-11-20T15:17:50;5.50;99.90
9103;DHT22;4587;51.434;6.788;2022-11-20T15:20:16;5.40;99.90
9103;DHT22;4587;51.434;6.788;2022-11-20T15:22:42;5.40;99.90
9103;DHT22;4587;51.434;6.788;2022-11-20T15:25:15;5.40;99.90
9103;DHT22;4587;51.434;6.788;2022-11-20T15:27:43;5.40;99.90
9103;DHT22;4587;51.434;6.788;2022-11-20T15:30:14;5.40;99.90
9103;DHT22;4587;51.434;6.788;2022-11-20T15:32:40;5.40;99.90
9103;DHT22;4587;51.434;6.788;2022-11-20T15:35:06;5.40;99.90
9103;DHT22;4587;51.434;6.788;2022-11-20T15:37:32;5.40;99.90
9103;DHT22;4587;51.434;6.788;2022-11-20T15:39:57;5.50;99.90
9103;DHT22;4587;51.434;6.788;2022-11-20T15:42:23;5.40;99.90
9103;DHT22;4587;51.434;6.788;2022-11-20T15:44:48;5.40;99.90
9103;DHT22;4587;51.434;6.788;2022-11-20T15:47:14;5.40;99.90
9103;DHT22;4587;51.434;6.788;2022-11-20T15:49:39;5.50;99.90
9103;DHT22;4587;51.434;6.788;2022-11-20T15:52:05;5.50;99.90
9103;DHT22;4587;51.434;6.788;2022-11-20T15:54:31;5.40;99.90
9103;DHT22;4587;51.434;6.788;2022-11-20T15:56:56;5.40;99.90
9103;DHT22;4587;51.434;6.788;2022-11-20T15:59:22;5.40;99.90
9103;DHT22;4587;51.434;6.788;2022-11-20T16:01:47;5.40;99.90
9103;DHT22;4587;51.434;6.788;2022-11-20T16:04:15;5.40;99.90
9103;DHT22;4587;51.434;6.788;2022-11-20T16:06:41;5.50;99.90
9103;DHT22;4587;51.434;6.788;2022-11-20T16:09:07;5.40;99.90
9103;DHT22;4587;51.434;6.788;2022-11-20T16:11:33;5.50;99.90
9103;DHT22;4587;51.434;6.788;2022-11-20T16:14:00;5.50;99.90
9103;DHT22;4587;51.434;6.788;2022-11-20T16:16:44;5.50;99.90
9103;DHT22;4587;51.434;6.788;2022-11-20T16:19:14;5.50;99.90
9103;DHT22;4587;51.434;6.788;2022-11-20T16:21:41;5.50;99.90
9103;DHT22;4587;51.434;6.788;2022-11-20T16:24:08;5.50;99.90
9103;DHT22;4587;51.434;6.788;2022-11-20T16:26:35;5.50;99.90
9103;DHT22;4587;51.434;6.788;2022-11-20T16:29:01;5.50;99.90
9103;DHT22;4587;51.434;6.788;2022-11-20T16:31:28;5.50;99.90
9103;DHT22;4587;51.434;6.788;2022-11-20T16:33:55;5.50;99.90
9103;DHT22;4587;51.434;6.788;2022-11-20T16:36:23;5.50;99.90
9103;DHT22;4587;51.434;6.788;2022-11-20T16:38:56;5.50;99.90
9103;DHT22;4587;51.434;6.788;2022-11-20T16:41:23;5.50;99.90
9103;DHT22;4587;51.434;6.788;2022-11-20T16:43:55;5.50;99.90
9103;DHT22;4587;51.434;6.788;2022-11-20T16:46:25;5.60;99.90
9103;DHT22;4587;51.434;6.788;2022-11-20T16:51:21;5.70;99.90
9103;DHT22;4587;51.434;6.788;2022-11-20T16:53:47;5.70;99.90
9103;DHT22;4587;51.434;6.788;2022-11-20T16:56:17;5.80;99.90
9103;DHT22;4587;51.434;6.788;2022-11-20T16:58:46;5.80;99.90
9103;DHT22;4587;51.434;6.788;2022-11-20T17:01:14;5.80;99.90
9103;DHT22;4587;51.434;6.788;2022-11-20T17:03:42;5.90;99.90
9103;DHT22;4587;51.434;6.788;2022-11-20T17:06:18;5.80;99.90
9103;DHT22;4587;51.434;6.788;2022-11-20T17:08:45;5.90;99.90
9103;DHT22;4587;51.434;6.788;2022-11-20T17:11:14;6.00;99.90
9103;DHT22;4587;51.434;6.788;2022-11-20T17:13:39;5.90;99.90
9103;DHT22;4587;51.434;6.788;2022-11-20T17:16:11;6.10;99.90
9103;DHT22;4587;51.434;6.788;2022-11-20T17:18:37;6.00;99.90
9103;DHT22;4587;51.434;6.788;2022-11-20T17:21:03;6.10;99.90
9103;DHT22;4587;51.434;6.788;2022-11-20T17:23:34;6.10;99.90
9103;DHT22;4587;51.434;6.788;2022-11-20T17:26:09;6.20;99.90
9103;DHT22;4587;51.434;6.788;2022-11-20T17:28:36;6.20;99.90
9103;DHT22;4587;51.434;6.788;2022-11-20T17:31:04;6.10;99.90
9103;DHT22;4587;51.434;6.788;2022-11-20T17:33:30;6.10;99.90
9103;DHT22;4587;51.434;6.788;2022-11-20T17:35:56;6.20;99.90
9103;DHT22;4587;51.434;6.788;2022-11-20T17:38:21;6.30;99.90
9103;DHT22;4587;51.434;6.788;2022-11-20T17:40:47;6.20;99.90
9103;DHT22;4587;51.434;6.788;2022-11-20T17:43:13;6.40;99.90
9103;DHT22;4587;51.434;6.788;2022-11-20T17:45:38;6.30;99.90
9103;DHT22;4587;51.434;6.788;2022-11-20T17:48:04;6.30;99.90
9103;DHT22;4587;51.434;6.788;2022-11-20T17:50:29;6.30;99.90
9103;DHT22;4587;51.434;6.788;2022-11-20T17:52:55;6.40;99.90
9103;DHT22;4587;51.434;6.788;2022-11-20T17:55:20;6.40;99.90
9103;DHT22;4587;51.434;6.788;2022-11-20T17:57:46;6.40;99.90
9103;DHT22;4587;51.434;6.788;2022-11-20T18:00:18;6.30;99.90
9103;DHT22;4587;51.434;6.788;2022-11-20T18:02:44;6.40;99.90
9103;DHT22;4587;51.434;6.788;2022-11-20T18:05:10;6.40;99.90
9103;DHT22;4587;51.434;6.788;2022-11-20T18:07:35;6.50;99.90
9103;DHT22;4587;51.434;6.788;2022-11-20T18:10:03;6.50;99.90
9103;DHT22;4587;51.434;6.788;2022-11-20T18:12:29;6.60;99.90
9103;DHT22;4587;51.434;6.788;2022-11-20T18:14:55;6.60;99.90
9103;DHT22;4587;51.434;6.788;2022-11-20T18:17:20;6.60;99.90